createdAt,value
2022-10-15T00:09:18.059Z,3.25
2022-10-15T00:14:22.004Z,3.78
2022-10-15T00:19:50.025Z,3.72
2022-10-15T00:30:06.549Z,4.40
2022-10-15T01:02:09.402Z,4.65
2022-10-15T01:07:06.858Z,4.60
2022-10-15T01:13:03.053Z,4.25
2022-10-15T01:18:02.824Z,4.95
2022-10-15T01:23:15.617Z,5.45
2022-10-15T01:28:29.170Z,4.75
2022-10-15T01:34:40.859Z,5.45
2022-10-15T01:39:41.293Z,4.97
2022-10-15T01:44:46.633Z,4.50
2022-10-15T01:49:53.790Z,5.00
2022-10-15T01:54:58.257Z,5.07
2022-10-15T02:00:30.671Z,4.68
2022-10-15T02:05:40.130Z,4.40
2022-10-15T02:10:48.079Z,4.70
2022-10-15T02:22:50.010Z,4.97
2022-10-15T02:27:50.304Z,5.65
2022-10-15T02:32:50.229Z,6.18
2022-10-15T02:38:30.989Z,5.70
2022-10-15T02:51:00.502Z,6.22
2022-10-15T02:56:00.114Z,6.65
2022-10-15T03:00:54.106Z,6.88
2022-10-15T03:06:13.319Z,7.93
2022-10-15T03:11:14.823Z,7.45
2022-10-15T03:16:09.821Z,6.65
2022-10-15T03:21:05.334Z,6.35
2022-10-15T03:25:59.805Z,5.50
2022-10-15T03:32:05.465Z,5.40
2022-10-15T03:37:06.332Z,4.93
2022-10-15T03:42:01.567Z,4.18
2022-10-15T03:47:03.238Z,4.75
2022-10-15T03:52:08.099Z,4.35
2022-10-15T03:57:02.987Z,4.85
2022-10-15T04:02:03.281Z,4.80
2022-10-15T04:13:56.290Z,5.45
2022-10-15T04:19:07.360Z,5.00
2022-10-15T04:24:35.834Z,5.10
2022-10-15T04:41:44.042Z,5.28
2022-10-15T04:47:34.463Z,5.95
2022-10-15T04:52:41.504Z,5.88
2022-10-15T05:04:24.143Z,5.90
2022-10-15T05:09:23.570Z,7.80
2022-10-15T05:14:20.447Z,8.25
2022-10-15T05:20:56.882Z,6.93
2022-10-15T05:26:48.359Z,5.57
2022-10-15T05:31:42.347Z,6.82
2022-10-15T05:36:45.802Z,6.57
2022-10-15T05:41:43.028Z,6.72
2022-10-15T05:46:36.483Z,6.40
2022-10-15T05:51:30.198Z,8.23
2022-10-15T05:56:29.462Z,8.43
2022-10-15T06:01:24.131Z,8.85
2022-10-15T06:06:21.703Z,8.95
2022-10-15T06:11:14.873Z,8.38
2022-10-15T06:16:08.480Z,8.65
2022-10-15T06:21:03.196Z,10.45
2022-10-15T06:25:56.470Z,11.77
2022-10-15T06:30:49.645Z,12.38
2022-10-15T06:35:42.773Z,11.85
2022-10-15T06:40:38.805Z,11.70
2022-10-15T06:45:31.833Z,11.90
2022-10-15T06:50:26.888Z,12.43
2022-10-15T06:55:19.994Z,11.52
2022-10-15T07:00:15.536Z,10.95
2022-10-15T07:05:09.934Z,10.65
2022-10-15T07:10:03.497Z,10.65
2022-10-15T07:14:57.272Z,9.55
2022-10-15T07:19:51.831Z,9.98
2022-10-15T07:24:44.976Z,9.82
2022-10-15T07:29:38.296Z,9.32
2022-10-15T07:34:31.763Z,10.00
2022-10-15T07:39:26.465Z,9.40
2022-10-15T07:44:19.699Z,8.65
2022-10-15T07:49:12.880Z,8.40
2022-10-15T07:54:06.112Z,8.15
2022-10-15T07:59:00.840Z,7.50
2022-10-15T08:03:54.000Z,6.85
2022-10-15T08:08:47.897Z,6.43
2022-10-15T08:13:42.515Z,6.00
2022-10-15T08:18:38.007Z,7.38
2022-10-15T08:23:31.227Z,7.68
2022-10-15T08:28:27.080Z,7.38
2022-10-15T08:33:20.261Z,7.07
2022-10-15T08:38:19.760Z,7.57
2022-10-15T08:43:22.038Z,7.80
2022-10-15T08:48:21.268Z,7.20
2022-10-15T08:53:20.227Z,7.22
2022-10-15T09:03:25.226Z,6.55
2022-10-15T09:08:28.002Z,6.93
2022-10-15T09:13:28.112Z,7.53
2022-10-15T09:18:24.957Z,8.27
2022-10-15T09:23:22.411Z,7.55
2022-10-15T09:28:19.757Z,7.15
2022-10-15T09:33:20.649Z,6.85
2022-10-15T09:38:35.297Z,5.65
2022-10-15T09:43:35.435Z,5.72
2022-10-15T09:53:37.749Z,5.20
2022-10-15T09:58:38.734Z,5.65
2022-10-15T10:03:34.260Z,5.53
2022-10-15T10:08:33.387Z,5.55
2022-10-15T10:13:29.686Z,4.97
2022-10-15T10:18:29.194Z,5.28
2022-10-15T10:23:24.650Z,5.63
2022-10-15T10:28:26.340Z,6.00
2022-10-15T10:33:26.770Z,5.35
2022-10-15T10:38:22.522Z,5.72
2022-10-15T10:43:23.073Z,5.95
2022-10-15T10:48:21.555Z,5.68
2022-10-15T10:53:25.972Z,5.97
2022-10-15T10:58:26.285Z,4.32
2022-10-15T11:03:34.712Z,4.28
2022-10-15T11:08:34.067Z,3.88
2022-10-15T11:13:41.833Z,4.00
2022-10-15T11:18:54.566Z,5.10
2022-10-15T11:24:06.742Z,4.65
2022-10-15T11:29:14.188Z,4.20
2022-10-15T11:34:19.346Z,4.00
2022-10-15T11:39:46.305Z,3.88
2022-10-15T11:44:57.360Z,3.72
2022-10-15T11:50:05.573Z,4.30
2022-10-15T11:55:05.259Z,4.13
2022-10-15T12:00:04.200Z,4.40
2022-10-15T12:05:08.558Z,3.58
2022-10-15T12:10:07.623Z,4.32
2022-10-15T12:15:17.052Z,4.17
2022-10-15T12:20:17.097Z,4.40
2022-10-15T12:25:41.713Z,4.63
2022-10-15T12:30:40.162Z,4.05
2022-10-15T12:35:38.761Z,4.80
2022-10-15T12:40:33.507Z,4.70
2022-10-15T12:45:37.361Z,3.90
2022-10-15T12:50:37.393Z,4.43
2022-10-15T12:55:33.913Z,4.45
2022-10-15T13:00:38.866Z,4.53
2022-10-15T13:05:35.716Z,4.85
2022-10-15T13:10:31.145Z,4.93
2022-10-15T13:15:27.130Z,4.70
2022-10-15T13:20:37.036Z,5.38
2022-10-15T13:25:31.694Z,4.55
2022-10-15T13:30:25.117Z,4.60
2022-10-15T13:35:21.980Z,4.40
2022-10-15T13:40:21.928Z,4.35
2022-10-15T13:45:20.299Z,4.47
2022-10-15T13:50:25.149Z,4.20
2022-10-15T13:55:25.493Z,4.60
2022-10-15T14:00:29.018Z,5.57
2022-10-15T14:05:25.250Z,4.45
2022-10-15T14:10:46.456Z,4.55
2022-10-15T14:16:00.418Z,5.03
2022-10-15T14:20:56.683Z,4.72
2022-10-15T14:25:55.631Z,4.82
2022-10-15T14:31:38.376Z,5.75
2022-10-15T14:36:53.449Z,5.70
2022-10-15T14:43:26.348Z,5.95
2022-10-15T16:06:21.456Z,11.50
2022-10-15T16:11:40.084Z,12.32
2022-10-15T16:16:54.138Z,11.32
2022-10-15T16:21:55.195Z,10.63
2022-10-15T16:27:26.783Z,11.00
2022-10-15T16:32:56.127Z,12.50
2022-10-15T16:38:41.596Z,12.07
2022-10-15T16:49:05.272Z,13.07
2022-10-15T16:54:26.757Z,13.18
2022-10-15T16:59:24.431Z,13.50
2022-10-15T17:04:31.258Z,12.23
2022-10-15T17:09:25.620Z,10.48
2022-10-15T17:14:43.289Z,11.93
2022-10-15T17:19:43.019Z,13.13
2022-10-15T17:25:28.213Z,13.13
2022-10-15T17:31:54.879Z,9.93
2022-10-15T18:03:56.173Z,9.70
2022-10-15T18:36:39.280Z,8.27
2022-10-15T19:37:07.912Z,15.38
2022-10-15T19:42:46.789Z,9.68
2022-10-15T19:47:51.601Z,8.73
2022-10-15T19:53:03.845Z,7.40
2022-10-15T19:58:23.240Z,7.55
2022-10-15T20:08:38.051Z,7.38
2022-10-15T20:19:44.651Z,7.57
2022-10-15T20:25:19.322Z,7.18
2022-10-15T20:30:16.874Z,7.20
2022-10-15T20:35:11.382Z,6.63
2022-10-15T20:40:15.024Z,9.07
2022-10-15T20:57:47.965Z,9.57
2022-10-15T21:02:52.076Z,14.07
2022-10-15T21:08:27.249Z,13.18
2022-10-15T21:13:29.497Z,25.50
2022-10-15T21:18:30.067Z,13.82
2022-10-15T21:23:24.955Z,17.20
2022-10-15T21:28:20.500Z,11.93
2022-10-15T21:33:13.964Z,10.13
2022-10-15T21:38:10.026Z,10.27
2022-10-15T21:43:10.283Z,10.52
2022-10-15T21:48:07.029Z,10.68
2022-10-15T21:53:03.962Z,10.48
2022-10-15T21:58:02.443Z,10.10
2022-10-15T22:03:12.335Z,9.48
2022-10-15T22:08:19.249Z,10.50
2022-10-15T22:13:14.523Z,11.20
2022-10-15T22:18:30.658Z,10.57
2022-10-15T22:24:01.211Z,11.15
2022-10-15T23:03:46.569Z,10.68
2022-10-15T23:08:45.490Z,10.35
2022-10-15T23:21:16.074Z,11.27
